createdAt,value
2018-07-12T00:01:35.776Z,15.99
2018-07-12T00:04:09.239Z,16.02
2018-07-12T00:06:42.588Z,15.95
2018-07-12T00:09:16.072Z,15.99
2018-07-12T00:11:49.533Z,15.99
2018-07-12T00:14:22.882Z,16.07
2018-07-12T00:16:56.296Z,16.11
2018-07-12T00:19:29.800Z,16.15
2018-07-12T00:22:03.204Z,16.15
2018-07-12T00:24:36.656Z,16.13
2018-07-12T00:27:10.098Z,16.18
2018-07-12T00:29:43.562Z,16.17
2018-07-12T00:32:16.960Z,16.14
2018-07-12T00:34:50.430Z,16.16
2018-07-12T00:37:23.984Z,16.11
2018-07-12T00:39:57.377Z,16.18
2018-07-12T00:42:30.904Z,16.14
2018-07-12T00:45:04.446Z,16.20
2018-07-12T00:47:37.959Z,16.23
2018-07-12T00:50:11.421Z,16.22
2018-07-12T00:52:44.965Z,16.19
2018-07-12T00:55:18.346Z,16.17
2018-07-12T00:57:51.797Z,16.10
2018-07-12T01:00:25.363Z,16.02
2018-07-12T01:02:58.757Z,15.94
2018-07-12T01:05:32.312Z,15.90
2018-07-12T01:08:05.737Z,15.84
2018-07-12T01:10:39.165Z,15.84
2018-07-12T01:13:12.641Z,15.81
2018-07-12T01:15:46.164Z,15.78
2018-07-12T01:18:19.655Z,15.80
2018-07-12T01:20:53.079Z,15.81
2018-07-12T01:23:26.401Z,15.83
2018-07-12T01:25:59.919Z,15.86
2018-07-12T01:28:33.663Z,15.90
2018-07-12T01:31:07.271Z,15.89
2018-07-12T01:33:40.641Z,15.88
2018-07-12T01:36:14.225Z,15.91
2018-07-12T01:38:47.630Z,15.89
2018-07-12T01:41:21.520Z,15.86
2018-07-12T01:43:55.218Z,15.81
2018-07-12T01:46:28.804Z,15.74
2018-07-12T01:49:02.360Z,15.69
2018-07-12T01:51:35.835Z,15.61
2018-07-12T01:54:09.460Z,15.51
2018-07-12T01:56:42.919Z,15.42
2018-07-12T01:59:16.320Z,15.35
2018-07-12T02:01:49.692Z,15.31
2018-07-12T02:04:23.319Z,15.25
2018-07-12T02:06:56.724Z,15.19
2018-07-12T02:09:30.244Z,15.05
2018-07-12T02:12:03.877Z,15.06
2018-07-12T02:14:37.272Z,15.07
2018-07-12T02:17:10.843Z,15.02
2018-07-12T02:19:44.460Z,14.94
2018-07-12T02:22:17.973Z,14.85
2018-07-12T02:24:51.464Z,14.80
2018-07-12T02:27:24.993Z,14.79
2018-07-12T02:29:58.527Z,14.73
2018-07-12T02:32:31.973Z,14.66
2018-07-12T02:35:05.502Z,14.74
2018-07-12T02:37:38.908Z,14.72
2018-07-12T02:40:12.845Z,14.68
2018-07-12T02:42:46.100Z,14.63
2018-07-12T02:45:19.561Z,14.59
2018-07-12T02:47:52.798Z,14.52
2018-07-12T02:50:26.192Z,14.47
2018-07-12T02:52:59.500Z,14.42
2018-07-12T02:55:32.793Z,14.38
2018-07-12T02:58:06.007Z,14.37
2018-07-12T03:00:39.228Z,14.32
2018-07-12T03:03:12.479Z,14.28
2018-07-12T03:05:45.724Z,14.25
2018-07-12T03:08:19.024Z,14.30
2018-07-12T03:10:52.448Z,14.29
2018-07-12T03:13:25.735Z,14.27
2018-07-12T03:15:58.978Z,14.27
2018-07-12T03:18:32.271Z,14.24
2018-07-12T03:21:05.531Z,14.29
2018-07-12T03:23:38.835Z,14.24
2018-07-12T03:26:12.187Z,14.34
2018-07-12T03:28:45.347Z,14.44
2018-07-12T03:31:18.739Z,14.54
2018-07-12T03:33:52.104Z,14.64
2018-07-12T03:36:25.552Z,14.73
2018-07-12T03:38:58.779Z,14.73
2018-07-12T03:41:31.984Z,14.74
2018-07-12T03:44:05.239Z,14.85
2018-07-12T03:46:38.635Z,14.94
2018-07-12T03:49:11.925Z,15.00
2018-07-12T03:51:45.156Z,15.06
2018-07-12T03:54:18.387Z,15.09
2018-07-12T03:56:51.644Z,15.13
2018-07-12T03:59:24.898Z,15.22
2018-07-12T04:01:58.146Z,15.28
2018-07-12T04:04:31.375Z,15.34
2018-07-12T04:07:04.675Z,15.42
2018-07-12T04:09:37.879Z,15.45
2018-07-12T04:12:11.264Z,15.47
2018-07-12T04:14:44.451Z,15.51
2018-07-12T04:17:27.162Z,15.51
2018-07-12T04:20:01.596Z,15.49
2018-07-12T04:22:35.880Z,15.44
2018-07-12T04:25:09.247Z,15.43
2018-07-12T04:27:42.503Z,15.39
2018-07-12T04:30:15.720Z,15.45
2018-07-12T04:32:48.976Z,15.50
2018-07-12T04:35:22.200Z,15.43
2018-07-12T04:37:55.547Z,15.37
2018-07-12T04:40:28.831Z,15.36
2018-07-12T04:43:02.083Z,15.36
2018-07-12T04:45:35.364Z,15.34
2018-07-12T04:48:08.571Z,15.43
2018-07-12T04:50:41.827Z,15.48
2018-07-12T04:53:15.051Z,15.51
2018-07-12T04:55:48.332Z,15.46
2018-07-12T04:58:21.652Z,15.39
2018-07-12T05:00:55.363Z,15.44
2018-07-12T05:03:28.935Z,15.56
2018-07-12T05:06:02.129Z,15.66
2018-07-12T05:08:35.399Z,15.62
2018-07-12T05:11:08.674Z,15.73
2018-07-12T05:13:41.996Z,15.83
2018-07-12T05:16:15.336Z,15.88
2018-07-12T05:18:48.574Z,15.75
2018-07-12T05:21:21.853Z,15.76
2018-07-12T05:23:55.231Z,15.63
2018-07-12T05:26:28.538Z,15.59
2018-07-12T05:29:01.815Z,15.78
2018-07-12T05:31:35.227Z,15.73
2018-07-12T05:34:08.470Z,15.83
2018-07-12T05:36:59.892Z,16.05
2018-07-12T05:39:34.192Z,16.04
2018-07-12T05:42:08.631Z,15.98
2018-07-12T05:44:42.909Z,16.10
2018-07-12T05:47:17.251Z,15.97
2018-07-12T05:49:51.648Z,16.03
2018-07-12T05:52:26.079Z,16.08
2018-07-12T05:55:00.351Z,16.13
2018-07-12T05:57:34.808Z,16.26
2018-07-12T06:00:09.127Z,16.32
2018-07-12T06:02:43.375Z,16.14
2018-07-12T06:05:17.624Z,16.23
2018-07-12T06:07:52.131Z,16.28
2018-07-12T06:10:26.579Z,16.26
2018-07-12T06:13:01.027Z,16.21
2018-07-12T06:15:35.275Z,16.12
2018-07-12T06:18:09.575Z,15.91
2018-07-12T06:20:43.971Z,15.91
2018-07-12T06:23:18.383Z,15.91
2018-07-12T06:25:52.807Z,16.05
2018-07-12T06:28:27.091Z,16.05
2018-07-12T06:31:01.515Z,16.05
2018-07-12T06:33:35.743Z,16.27
2018-07-12T06:36:10.196Z,16.29
2018-07-12T06:38:44.868Z,16.13
2018-07-12T06:41:19.171Z,16.17
2018-07-12T06:43:53.439Z,16.22
2018-07-12T06:46:27.783Z,16.18
2018-07-12T06:49:02.352Z,16.31
2018-07-12T06:51:36.613Z,16.52
2018-07-12T06:54:11.079Z,16.46
2018-07-12T06:56:45.387Z,16.44
2018-07-12T06:59:19.931Z,16.50
2018-07-12T07:01:54.303Z,16.70
2018-07-12T07:04:28.731Z,16.82
2018-07-12T07:07:03.169Z,17.37
2018-07-12T07:09:37.574Z,18.07
2018-07-12T07:12:12.016Z,18.22
2018-07-12T07:14:46.453Z,18.05
2018-07-12T07:17:20.767Z,18.02
2018-07-12T07:19:55.423Z,18.07
2018-07-12T07:22:30.624Z,17.99
2018-07-12T07:25:05.114Z,17.93
2018-07-12T07:27:39.547Z,18.64
2018-07-12T07:30:14.016Z,19.29
2018-07-12T07:32:48.307Z,19.10
2018-07-12T07:35:22.725Z,18.92
2018-07-12T07:37:57.095Z,19.10
2018-07-12T07:40:31.550Z,19.20
2018-07-12T07:43:06.201Z,19.04
2018-07-12T07:45:40.656Z,19.78
2018-07-12T07:48:15.358Z,20.75
2018-07-12T07:50:49.763Z,20.53
2018-07-12T07:53:24.076Z,20.33
2018-07-12T07:55:58.721Z,19.93
2018-07-12T07:58:33.129Z,19.54
2018-07-12T08:01:07.540Z,19.45
2018-07-12T08:03:41.948Z,19.12
2018-07-12T08:06:16.291Z,19.13
2018-07-12T08:08:50.715Z,19.33
2018-07-12T08:11:24.931Z,19.01
2018-07-12T08:13:59.335Z,18.96
2018-07-12T08:16:33.842Z,19.16
2018-07-12T08:19:08.212Z,19.34
2018-07-12T08:21:42.572Z,19.75
2018-07-12T08:24:16.950Z,20.18
2018-07-12T08:26:51.386Z,20.97
2018-07-12T08:29:25.824Z,20.79
2018-07-12T08:32:00.628Z,20.56
2018-07-12T08:34:35.002Z,20.08
2018-07-12T08:37:09.423Z,20.23
2018-07-12T08:39:43.759Z,21.23
2018-07-12T08:42:18.174Z,21.36
2018-07-12T08:44:52.539Z,21.87
2018-07-12T08:47:27.012Z,22.54
2018-07-12T08:50:01.330Z,23.69
2018-07-12T08:52:35.980Z,23.96
2018-07-12T08:55:10.357Z,23.68
2018-07-12T08:57:45.456Z,22.85
2018-07-12T09:00:19.734Z,22.67
2018-07-12T09:02:54.094Z,22.01
2018-07-12T09:05:28.492Z,21.95
2018-07-12T09:08:02.947Z,23.99
2018-07-12T09:10:37.248Z,26.33
2018-07-12T09:13:11.671Z,26.73
2018-07-12T09:15:46.073Z,25.88
2018-07-12T09:18:20.371Z,23.97
2018-07-12T09:20:54.784Z,27.11
2018-07-12T09:23:29.207Z,26.86
2018-07-12T09:26:03.607Z,25.65
2018-07-12T09:28:38.010Z,24.55
2018-07-12T09:31:12.391Z,26.21
2018-07-12T09:33:46.739Z,27.88
2018-07-12T09:36:21.130Z,28.90
2018-07-12T09:38:55.456Z,26.86
2018-07-12T09:41:29.731Z,25.81
2018-07-12T09:44:04.091Z,26.87
2018-07-12T09:46:38.463Z,28.55
2018-07-12T09:49:13.128Z,29.45
2018-07-12T09:51:47.347Z,31.35
2018-07-12T09:54:21.782Z,29.57
2018-07-12T09:57:07.723Z,27.98
2018-07-12T09:59:42.180Z,26.28
2018-07-12T10:02:22.023Z,28.33
2018-07-12T10:04:56.285Z,31.41
2018-07-12T10:07:30.694Z,28.73
2018-07-12T10:10:05.188Z,27.42
2018-07-12T10:12:44.941Z,27.67
2018-07-12T10:15:24.891Z,28.47
2018-07-12T10:18:04.725Z,29.86
2018-07-12T10:20:39.266Z,29.47
2018-07-12T10:23:13.592Z,29.73
2018-07-12T10:25:48.016Z,30.25
2018-07-12T10:28:22.420Z,27.97
2018-07-12T10:30:56.869Z,28.07
2018-07-12T10:33:31.123Z,28.66
2018-07-12T10:36:05.583Z,28.72
2018-07-12T10:38:40.005Z,26.94
2018-07-12T10:41:14.441Z,26.64
2018-07-12T10:43:48.795Z,28.26
2018-07-12T10:46:23.164Z,29.41
2018-07-12T10:48:57.476Z,30.81
2018-07-12T10:51:31.739Z,31.72
2018-07-12T10:54:06.183Z,32.64
2018-07-12T10:56:40.594Z,29.71
2018-07-12T10:59:15.052Z,28.27
2018-07-12T11:01:49.462Z,27.78
2018-07-12T11:04:23.826Z,28.48
2018-07-12T11:06:58.223Z,28.52
2018-07-12T11:09:32.643Z,28.39
2018-07-12T11:12:07.079Z,28.85
2018-07-12T11:14:41.540Z,31.05
2018-07-12T11:17:15.959Z,30.49
2018-07-12T11:19:50.387Z,31.93
2018-07-12T11:22:24.848Z,29.38
2018-07-12T11:24:59.303Z,28.78
2018-07-12T11:27:33.670Z,30.62
2018-07-12T11:30:08.052Z,29.98
2018-07-12T11:32:42.424Z,28.50
2018-07-12T11:35:16.827Z,27.40
2018-07-12T11:37:51.262Z,27.77
2018-07-12T11:40:25.632Z,27.41
2018-07-12T11:43:00.131Z,27.13
2018-07-12T11:45:34.531Z,28.53
2018-07-12T11:48:08.920Z,29.62
2018-07-12T11:50:43.204Z,28.62
2018-07-12T11:53:17.687Z,28.41
2018-07-12T11:55:53.155Z,27.40
2018-07-12T11:58:27.599Z,26.58
2018-07-12T12:01:02.241Z,24.78
2018-07-12T12:03:36.687Z,24.31
2018-07-12T12:06:11.123Z,25.21
2018-07-12T12:08:45.547Z,25.98
2018-07-12T12:11:19.984Z,25.87
2018-07-12T12:13:54.315Z,25.94
2018-07-12T12:16:28.727Z,25.37
2018-07-12T12:19:03.139Z,25.34
2018-07-12T12:21:37.455Z,25.04
2018-07-12T12:24:11.751Z,24.96
2018-07-12T12:26:46.051Z,24.72
2018-07-12T12:29:20.313Z,24.63
2018-07-12T12:31:54.667Z,24.36
2018-07-12T12:34:28.943Z,24.55
2018-07-12T12:37:03.656Z,25.41
2018-07-12T12:39:37.942Z,25.45
2018-07-12T12:42:12.395Z,24.92
2018-07-12T12:44:46.859Z,24.84
2018-07-12T12:47:21.151Z,24.64
2018-07-12T12:49:55.464Z,24.46
2018-07-12T12:52:29.983Z,24.33
2018-07-12T12:55:04.652Z,24.23
2018-07-12T12:57:39.096Z,23.93
2018-07-12T13:00:13.588Z,23.46
2018-07-12T13:02:47.979Z,23.45
2018-07-12T13:05:22.247Z,23.75
2018-07-12T13:07:56.653Z,24.01
2018-07-12T13:10:30.903Z,24.15
2018-07-12T13:13:05.419Z,24.20
2018-07-12T13:15:39.676Z,23.97
2018-07-12T13:18:14.060Z,24.33
2018-07-12T13:20:48.444Z,24.59
2018-07-12T13:23:22.746Z,25.19
2018-07-12T13:25:57.175Z,25.40
2018-07-12T13:28:31.551Z,25.77
2018-07-12T13:31:06.155Z,25.34
2018-07-12T13:33:40.406Z,25.45
2018-07-12T13:36:14.791Z,25.61
2018-07-12T13:38:49.149Z,25.52
2018-07-12T13:41:23.477Z,25.33
2018-07-12T13:44:20.372Z,24.96
2018-07-12T13:46:55.407Z,24.72
2018-07-12T13:49:29.744Z,24.30
2018-07-12T13:52:04.212Z,24.11
2018-07-12T13:54:38.432Z,24.02
2018-07-12T13:57:12.819Z,24.30
2018-07-12T13:59:47.262Z,24.39
2018-07-12T14:02:21.620Z,24.65
2018-07-12T14:04:55.919Z,24.91
2018-07-12T14:07:30.308Z,25.57
2018-07-12T14:10:04.855Z,25.86
2018-07-12T14:12:39.047Z,26.48
2018-07-12T14:15:13.451Z,26.52
2018-07-12T14:17:47.815Z,26.33
2018-07-12T14:20:22.203Z,25.93
2018-07-12T14:22:56.611Z,26.09
2018-07-12T14:25:30.863Z,26.11
2018-07-12T14:28:05.275Z,26.80
2018-07-12T14:30:39.670Z,27.77
2018-07-12T14:33:14.027Z,28.75
2018-07-12T14:35:48.348Z,29.46
2018-07-12T14:38:22.727Z,30.19
2018-07-12T14:40:57.111Z,30.58
2018-07-12T14:43:31.478Z,30.64
2018-07-12T14:46:05.891Z,30.63
2018-07-12T14:48:40.139Z,31.44
2018-07-12T14:51:14.577Z,32.93
2018-07-12T14:53:48.975Z,32.83
2018-07-12T14:56:23.411Z,33.82
2018-07-12T14:58:57.839Z,32.78
2018-07-12T15:01:32.198Z,32.17
2018-07-12T15:04:06.716Z,31.87
2018-07-12T15:06:40.944Z,31.36
2018-07-12T15:09:15.527Z,31.30
2018-07-12T15:11:50.110Z,30.12
2018-07-12T15:14:24.423Z,29.44
2018-07-12T15:16:58.802Z,29.51
2018-07-12T15:19:33.062Z,29.88
2018-07-12T15:22:07.525Z,30.23
2018-07-12T15:24:41.872Z,30.03
2018-07-12T15:27:16.211Z,28.44
2018-07-12T15:29:50.656Z,28.44
2018-07-12T15:32:25.032Z,28.32
2018-07-12T15:34:59.402Z,28.40
2018-07-12T15:37:33.819Z,27.43
2018-07-12T15:40:08.210Z,27.27
2018-07-12T15:42:42.615Z,27.37
2018-07-12T15:45:17.018Z,26.80
2018-07-12T15:47:51.412Z,26.60
2018-07-12T15:50:26.791Z,26.25
2018-07-12T15:53:01.063Z,26.30
2018-07-12T15:55:35.243Z,26.36
2018-07-12T15:58:09.519Z,26.40
2018-07-12T16:00:43.943Z,26.24
2018-07-12T16:03:18.339Z,26.26
2018-07-12T16:05:52.923Z,26.33
2018-07-12T16:08:28.334Z,26.27
2018-07-12T16:11:02.851Z,25.84
2018-07-12T16:13:37.269Z,25.87
2018-07-12T16:16:11.704Z,25.92
2018-07-12T16:18:45.933Z,25.84
2018-07-12T16:21:20.229Z,25.71
2018-07-12T16:23:54.588Z,25.47
2018-07-12T16:26:28.887Z,25.41
2018-07-12T16:29:03.484Z,25.37
2018-07-12T16:31:37.804Z,25.43
2018-07-12T16:34:12.332Z,25.55
2018-07-12T16:36:46.698Z,25.34
2018-07-12T16:39:21.135Z,25.34
2018-07-12T16:41:55.667Z,25.29
2018-07-12T16:44:30.018Z,25.15
2018-07-12T16:47:04.591Z,25.11
2018-07-12T16:49:39.117Z,25.04
2018-07-12T16:52:13.419Z,25.19
2018-07-12T16:54:47.880Z,25.21
2018-07-12T16:57:22.203Z,25.17
2018-07-12T16:59:56.570Z,25.22
2018-07-12T17:02:30.861Z,25.05
2018-07-12T17:05:05.301Z,25.05
2018-07-12T17:07:39.727Z,25.03
2018-07-12T17:10:14.259Z,24.92
2018-07-12T17:12:48.706Z,25.07
2018-07-12T17:15:23.171Z,25.02
2018-07-12T17:17:57.557Z,25.04
2018-07-12T17:20:31.991Z,25.06
2018-07-12T17:23:06.326Z,24.90
2018-07-12T17:25:40.749Z,24.89
2018-07-12T17:28:15.044Z,24.73
2018-07-12T17:30:49.462Z,24.63
2018-07-12T17:33:23.894Z,24.49
2018-07-12T17:35:58.255Z,24.49
2018-07-12T17:38:32.552Z,24.40
2018-07-12T17:41:07.057Z,24.36
2018-07-12T17:43:41.263Z,24.32
2018-07-12T17:46:15.582Z,24.33
2018-07-12T17:48:49.995Z,24.36
2018-07-12T17:51:24.352Z,24.38
2018-07-12T17:53:58.750Z,24.45
2018-07-12T17:56:33.163Z,24.54
2018-07-12T17:59:07.451Z,24.39
2018-07-12T18:01:41.938Z,24.18
2018-07-12T18:04:16.338Z,23.91
2018-07-12T18:06:50.718Z,23.98
2018-07-12T18:09:25.079Z,23.97
2018-07-12T18:11:59.520Z,23.89
2018-07-12T18:14:34.064Z,23.85
2018-07-12T18:17:08.353Z,23.72
2018-07-12T18:19:42.643Z,23.70
2018-07-12T18:22:17.177Z,23.61
2018-07-12T18:24:51.286Z,23.47
2018-07-12T18:27:25.743Z,23.39
2018-07-12T18:30:00.240Z,23.33
2018-07-12T18:32:34.648Z,23.22
2018-07-12T18:35:08.935Z,23.03
2018-07-12T18:37:43.319Z,22.97
2018-07-12T18:40:17.627Z,22.93
2018-07-12T18:42:52.067Z,22.83
2018-07-12T18:45:26.455Z,22.77
2018-07-12T18:48:00.871Z,22.68
2018-07-12T18:50:35.210Z,22.62
2018-07-12T18:53:09.637Z,22.57
2018-07-12T18:55:44.147Z,22.51
2018-07-12T18:58:18.544Z,22.43
2018-07-12T19:00:53.056Z,22.41
2018-07-12T19:03:27.463Z,22.39
2018-07-12T19:06:01.912Z,22.30
2018-07-12T19:08:36.912Z,22.30
2018-07-12T19:11:11.312Z,22.29
2018-07-12T19:13:46.942Z,22.33
2018-07-12T19:16:21.501Z,22.26
2018-07-12T19:18:56.056Z,22.25
2018-07-12T19:21:30.760Z,22.23
2018-07-12T19:24:05.336Z,22.15
2018-07-12T19:26:39.916Z,22.12
2018-07-12T19:29:14.500Z,22.05
2018-07-12T19:31:48.863Z,22.01
2018-07-12T19:34:23.527Z,21.97
2018-07-12T19:36:58.060Z,21.93
2018-07-12T19:39:32.611Z,21.81
2018-07-12T19:42:06.996Z,21.76
2018-07-12T19:44:41.493Z,21.73
2018-07-12T19:47:16.254Z,21.58
2018-07-12T19:49:50.749Z,21.49
2018-07-12T19:52:25.387Z,21.41
2018-07-12T19:54:59.651Z,21.31
2018-07-12T19:57:34.003Z,21.23
2018-07-12T20:00:08.644Z,21.19
2018-07-12T20:02:42.984Z,21.12
2018-07-12T20:05:17.408Z,21.12
2018-07-12T20:07:51.901Z,21.11
2018-07-12T20:10:26.567Z,21.08
2018-07-12T20:13:01.117Z,21.08
2018-07-12T20:15:36.045Z,21.07
2018-07-12T20:18:10.530Z,21.04
2018-07-12T20:20:45.139Z,20.99
2018-07-12T20:23:19.705Z,21.06
2018-07-12T20:25:54.374Z,20.95
2018-07-12T20:28:28.804Z,20.94
2018-07-12T20:31:03.162Z,20.92
2018-07-12T20:33:37.661Z,20.89
2018-07-12T20:36:12.233Z,20.92
2018-07-12T20:38:46.714Z,20.85
2018-07-12T20:41:21.154Z,20.83
2018-07-12T20:43:55.613Z,20.77
2018-07-12T20:46:29.970Z,20.70
2018-07-12T20:49:04.363Z,20.65
2018-07-12T20:51:38.808Z,20.54
2018-07-12T20:54:13.360Z,20.44
2018-07-12T20:56:47.765Z,20.30
2018-07-12T20:59:22.255Z,20.26
2018-07-12T21:01:56.688Z,20.14
2018-07-12T21:04:31.192Z,20.07
2018-07-12T21:07:05.857Z,19.97
2018-07-12T21:09:40.426Z,19.98
2018-07-12T21:12:15.009Z,20.00
2018-07-12T21:14:49.961Z,20.01
2018-07-12T21:17:24.448Z,20.02
2018-07-12T21:19:59.117Z,19.88
2018-07-12T21:22:33.616Z,19.69
2018-07-12T21:25:08.137Z,19.56
2018-07-12T21:27:42.628Z,19.43
2018-07-12T21:30:17.143Z,19.30
2018-07-12T21:32:51.852Z,19.17
2018-07-12T21:35:26.378Z,19.04
2018-07-12T21:38:00.943Z,18.87
2018-07-12T21:40:35.419Z,18.80
2018-07-12T21:43:09.740Z,18.74
2018-07-12T21:45:44.388Z,18.66
2018-07-12T21:48:19.105Z,18.59
2018-07-12T21:50:53.653Z,18.56
2018-07-12T21:53:28.239Z,18.52
2018-07-12T21:56:02.743Z,18.47
2018-07-12T21:58:37.328Z,18.46
2018-07-12T22:01:11.616Z,18.44
2018-07-12T22:03:46.224Z,18.43
2018-07-12T22:07:00.584Z,18.49
2018-07-12T22:09:35.190Z,18.60
2018-07-12T22:12:09.793Z,18.69
2018-07-12T22:14:44.537Z,18.74
2018-07-12T22:17:19.068Z,18.64
2018-07-12T22:19:53.612Z,18.62
2018-07-12T22:22:28.177Z,18.59
2018-07-12T22:25:02.741Z,18.51
2018-07-12T22:27:37.261Z,18.46
2018-07-12T22:30:11.815Z,18.43
2018-07-12T22:32:46.344Z,18.36
2018-07-12T22:35:20.860Z,18.28
2018-07-12T22:37:55.707Z,18.20
2018-07-12T22:40:30.359Z,18.11
2018-07-12T22:43:04.784Z,18.12
2018-07-12T22:45:39.438Z,18.04
2018-07-12T22:48:14.107Z,17.97
2018-07-12T22:50:48.518Z,17.87
2018-07-12T22:53:22.988Z,17.85
2018-07-12T22:55:57.796Z,17.77
2018-07-12T22:58:32.273Z,17.71
2018-07-12T23:01:06.729Z,17.65
2018-07-12T23:03:41.394Z,17.62
2018-07-12T23:06:16.856Z,17.79
2018-07-12T23:08:51.407Z,17.86
2018-07-12T23:11:26.025Z,17.89
2018-07-12T23:14:00.516Z,17.88
2018-07-12T23:16:34.956Z,17.84
2018-07-12T23:19:09.598Z,17.77
2018-07-12T23:21:44.183Z,17.74
2018-07-12T23:24:18.589Z,17.72
2018-07-12T23:26:53.469Z,17.70
2018-07-12T23:29:28.152Z,17.75
2018-07-12T23:32:02.821Z,17.71
2018-07-12T23:34:37.396Z,17.66
2018-07-12T23:37:12.019Z,17.61
2018-07-12T23:39:46.437Z,17.53
2018-07-12T23:42:20.932Z,17.42
2018-07-12T23:44:55.797Z,17.45
2018-07-12T23:47:30.412Z,17.43
2018-07-12T23:50:04.819Z,17.43
2018-07-12T23:52:39.500Z,17.48
2018-07-12T23:55:14.205Z,17.44
2018-07-12T23:57:48.724Z,17.34
